sensor_id;sensor_type;location;lat;lon;timestamp;P1;durP1;ratioP1;P2;durP2;ratioP2
62258;SDS011;48241;48.824;10.102;2023-02-28T00:00:26;4.28;;;2.05;;
62258;SDS011;48241;48.824;10.102;2023-02-28T00:02:52;4.55;;;2.03;;
62258;SDS011;48241;48.824;10.102;2023-02-28T00:05:18;4.53;;;2.35;;
62258;SDS011;48241;48.824;10.102;2023-02-28T00:07:47;5.05;;;2.40;;
62258;SDS011;48241;48.824;10.102;2023-02-28T00:10:14;4.07;;;2.20;;
62258;SDS011;48241;48.824;10.102;2023-02-28T00:12:45;4.93;;;2.67;;
62258;SDS011;48241;48.824;10.102;2023-02-28T00:15:12;3.97;;;2.00;;
62258;SDS011;48241;48.824;10.102;2023-02-28T00:17:37;3.60;;;2.15;;
62258;SDS011;48241;48.824;10.102;2023-02-28T00:20:03;3.00;;;1.98;;
62258;SDS011;48241;48.824;10.102;2023-02-28T00:22:31;4.85;;;2.22;;
62258;SDS011;48241;48.824;10.102;2023-02-28T00:24:56;5.97;;;2.53;;
62258;SDS011;48241;48.824;10.102;2023-02-28T00:27:22;3.80;;;2.50;;
62258;SDS011;48241;48.824;10.102;2023-02-28T00:29:47;4.20;;;2.22;;
62258;SDS011;48241;48.824;10.102;2023-02-28T00:32:13;3.90;;;2.58;;
62258;SDS011;48241;48.824;10.102;2023-02-28T00:34:39;5.68;;;2.60;;
62258;SDS011;48241;48.824;10.102;2023-02-28T00:37:08;5.60;;;2.90;;
62258;SDS011;48241;48.824;10.102;2023-02-28T00:39:37;4.20;;;2.75;;
62258;SDS011;48241;48.824;10.102;2023-02-28T00:42:03;4.10;;;2.53;;
62258;SDS011;48241;48.824;10.102;2023-02-28T00:44:30;4.95;;;2.45;;
62258;SDS011;48241;48.824;10.102;2023-02-28T00:46:56;3.05;;;2.13;;
62258;SDS011;48241;48.824;10.102;2023-02-28T00:49:22;4.72;;;2.20;;
62258;SDS011;48241;48.824;10.102;2023-02-28T00:51:49;3.55;;;2.70;;
62258;SDS011;48241;48.824;10.102;2023-02-28T00:54:15;4.28;;;2.50;;
62258;SDS011;48241;48.824;10.102;2023-02-28T00:56:41;4.45;;;2.70;;
62258;SDS011;48241;48.824;10.102;2023-02-28T00:59:06;4.57;;;2.83;;
62258;SDS011;48241;48.824;10.102;2023-02-28T01:01:32;4.70;;;3.05;;
62258;SDS011;48241;48.824;10.102;2023-02-28T01:03:57;5.10;;;2.72;;
62258;SDS011;48241;48.824;10.102;2023-02-28T01:06:23;3.65;;;2.60;;
62258;SDS011;48241;48.824;10.102;2023-02-28T01:08:48;4.18;;;3.00;;
62258;SDS011;48241;48.824;10.102;2023-02-28T01:11:14;4.68;;;2.28;;
62258;SDS011;48241;48.824;10.102;2023-02-28T01:13:44;4.43;;;2.70;;
62258;SDS011;48241;48.824;10.102;2023-02-28T01:16:10;4.00;;;2.83;;
62258;SDS011;48241;48.824;10.102;2023-02-28T01:18:37;6.00;;;2.70;;
62258;SDS011;48241;48.824;10.102;2023-02-28T01:21:07;5.38;;;2.83;;
62258;SDS011;48241;48.824;10.102;2023-02-28T01:23:35;4.65;;;3.20;;
62258;SDS011;48241;48.824;10.102;2023-02-28T01:26:04;5.35;;;3.33;;
62258;SDS011;48241;48.824;10.102;2023-02-28T01:28:34;4.05;;;3.00;;
62258;SDS011;48241;48.824;10.102;2023-02-28T01:31:00;5.88;;;3.22;;
62258;SDS011;48241;48.824;10.102;2023-02-28T01:33:26;3.80;;;2.63;;
62258;SDS011;48241;48.824;10.102;2023-02-28T01:36:02;3.20;;;2.13;;
62258;SDS011;48241;48.824;10.102;2023-02-28T01:38:30;4.82;;;3.10;;
62258;SDS011;48241;48.824;10.102;2023-02-28T01:40:55;3.55;;;2.38;;
62258;SDS011;48241;48.824;10.102;2023-02-28T01:43:22;4.80;;;3.00;;
62258;SDS011;48241;48.824;10.102;2023-02-28T01:45:50;5.60;;;3.13;;
62258;SDS011;48241;48.824;10.102;2023-02-28T01:48:16;4.65;;;2.88;;
62258;SDS011;48241;48.824;10.102;2023-02-28T01:50:43;5.70;;;3.13;;
62258;SDS011;48241;48.824;10.102;2023-02-28T01:53:13;3.25;;;2.53;;
62258;SDS011;48241;48.824;10.102;2023-02-28T01:55:41;5.88;;;3.50;;
62258;SDS011;48241;48.824;10.102;2023-02-28T01:58:11;6.30;;;3.47;;
62258;SDS011;48241;48.824;10.102;2023-02-28T02:00:37;5.22;;;3.28;;
62258;SDS011;48241;48.824;10.102;2023-02-28T02:03:07;7.00;;;3.60;;
62258;SDS011;48241;48.824;10.102;2023-02-28T02:05:36;7.03;;;3.42;;
62258;SDS011;48241;48.824;10.102;2023-02-28T02:08:04;4.45;;;2.67;;
62258;SDS011;48241;48.824;10.102;2023-02-28T02:10:33;3.10;;;2.42;;
62258;SDS011;48241;48.824;10.102;2023-02-28T02:15:44;7.28;;;3.47;;
62258;SDS011;48241;48.824;10.102;2023-02-28T02:18:30;6.13;;;2.88;;
62258;SDS011;48241;48.824;10.102;2023-02-28T02:31:48;5.70;;;3.75;;
62258;SDS011;48241;48.824;10.102;2023-02-28T02:34:40;5.43;;;3.83;;
62258;SDS011;48241;48.824;10.102;2023-02-28T02:42:44;5.55;;;3.22;;
62258;SDS011;48241;48.824;10.102;2023-02-28T02:48:15;6.55;;;3.60;;
62258;SDS011;48241;48.824;10.102;2023-02-28T02:50:45;4.93;;;3.38;;
62258;SDS011;48241;48.824;10.102;2023-02-28T02:53:17;4.50;;;3.40;;
62258;SDS011;48241;48.824;10.102;2023-02-28T02:55:47;5.60;;;3.85;;
62258;SDS011;48241;48.824;10.102;2023-02-28T02:58:19;5.63;;;3.80;;
62258;SDS011;48241;48.824;10.102;2023-02-28T03:00:52;6.55;;;3.78;;
62258;SDS011;48241;48.824;10.102;2023-02-28T03:03:20;5.38;;;2.72;;
62258;SDS011;48241;48.824;10.102;2023-02-28T03:05:53;5.65;;;2.72;;
62258;SDS011;48241;48.824;10.102;2023-02-28T03:08:20;7.75;;;3.60;;
62258;SDS011;48241;48.824;10.102;2023-02-28T03:10:46;5.35;;;3.88;;
62258;SDS011;48241;48.824;10.102;2023-02-28T03:16:24;3.65;;;2.75;;
62258;SDS011;48241;48.824;10.102;2023-02-28T03:21:43;5.55;;;3.60;;
62258;SDS011;48241;48.824;10.102;2023-02-28T03:24:34;6.68;;;3.88;;
62258;SDS011;48241;48.824;10.102;2023-02-28T03:27:34;6.22;;;3.83;;
62258;SDS011;48241;48.824;10.102;2023-02-28T03:32:55;6.78;;;3.60;;
62258;SDS011;48241;48.824;10.102;2023-02-28T03:35:30;7.75;;;4.10;;
62258;SDS011;48241;48.824;10.102;2023-02-28T03:38:08;8.23;;;3.70;;
62258;SDS011;48241;48.824;10.102;2023-02-28T03:40:39;7.93;;;4.80;;
62258;SDS011;48241;48.824;10.102;2023-02-28T03:43:11;8.90;;;4.65;;
62258;SDS011;48241;48.824;10.102;2023-02-28T03:45:43;6.50;;;4.55;;
62258;SDS011;48241;48.824;10.102;2023-02-28T03:48:27;7.60;;;4.93;;
62258;SDS011;48241;48.824;10.102;2023-02-28T03:51:00;5.78;;;3.60;;
62258;SDS011;48241;48.824;10.102;2023-02-28T03:53:28;3.60;;;2.38;;
62258;SDS011;48241;48.824;10.102;2023-02-28T03:56:08;6.25;;;3.53;;
62258;SDS011;48241;48.824;10.102;2023-02-28T04:01:43;7.13;;;4.75;;
62258;SDS011;48241;48.824;10.102;2023-02-28T04:04:11;8.40;;;4.10;;
62258;SDS011;48241;48.824;10.102;2023-02-28T04:06:38;8.38;;;4.65;;
62258;SDS011;48241;48.824;10.102;2023-02-28T04:09:05;7.88;;;5.32;;
62258;SDS011;48241;48.824;10.102;2023-02-28T04:11:38;7.68;;;4.75;;
62258;SDS011;48241;48.824;10.102;2023-02-28T04:14:12;7.38;;;3.88;;
62258;SDS011;48241;48.824;10.102;2023-02-28T04:16:39;8.88;;;4.88;;
62258;SDS011;48241;48.824;10.102;2023-02-28T04:19:07;8.77;;;5.43;;
62258;SDS011;48241;48.824;10.102;2023-02-28T04:21:34;5.63;;;4.05;;
62258;SDS011;48241;48.824;10.102;2023-02-28T04:24:02;4.88;;;3.38;;
62258;SDS011;48241;48.824;10.102;2023-02-28T04:26:32;6.30;;;5.00;;
62258;SDS011;48241;48.824;10.102;2023-02-28T04:28:59;7.88;;;4.93;;
62258;SDS011;48241;48.824;10.102;2023-02-28T04:31:25;9.43;;;5.50;;
62258;SDS011;48241;48.824;10.102;2023-02-28T04:33:51;7.07;;;4.55;;
62258;SDS011;48241;48.824;10.102;2023-02-28T04:36:17;9.88;;;5.90;;
62258;SDS011;48241;48.824;10.102;2023-02-28T04:38:43;9.50;;;5.55;;
62258;SDS011;48241;48.824;10.102;2023-02-28T04:41:09;9.23;;;5.38;;
62258;SDS011;48241;48.824;10.102;2023-02-28T04:43:35;9.02;;;5.32;;
62258;SDS011;48241;48.824;10.102;2023-02-28T04:46:01;8.65;;;5.40;;
62258;SDS011;48241;48.824;10.102;2023-02-28T04:48:29;8.52;;;5.55;;
62258;SDS011;48241;48.824;10.102;2023-02-28T04:51:00;7.18;;;5.28;;
62258;SDS011;48241;48.824;10.102;2023-02-28T04:53:31;7.60;;;4.68;;
62258;SDS011;48241;48.824;10.102;2023-02-28T04:55:57;11.02;;;5.72;;
62258;SDS011;48241;48.824;10.102;2023-02-28T04:58:22;8.35;;;5.20;;
62258;SDS011;48241;48.824;10.102;2023-02-28T05:00:49;8.52;;;5.50;;
62258;SDS011;48241;48.824;10.102;2023-02-28T05:03:18;8.35;;;5.38;;
62258;SDS011;48241;48.824;10.102;2023-02-28T05:05:45;6.15;;;3.58;;
62258;SDS011;48241;48.824;10.102;2023-02-28T05:08:11;8.30;;;5.70;;
62258;SDS011;48241;48.824;10.102;2023-02-28T05:10:37;8.93;;;5.82;;
62258;SDS011;48241;48.824;10.102;2023-02-28T05:13:02;8.23;;;4.95;;
62258;SDS011;48241;48.824;10.102;2023-02-28T05:15:28;10.07;;;5.15;;
62258;SDS011;48241;48.824;10.102;2023-02-28T05:17:53;6.22;;;3.95;;
62258;SDS011;48241;48.824;10.102;2023-02-28T05:20:19;8.10;;;5.93;;
62258;SDS011;48241;48.824;10.102;2023-02-28T05:22:45;9.02;;;5.85;;
62258;SDS011;48241;48.824;10.102;2023-02-28T05:25:12;7.85;;;5.72;;
62258;SDS011;48241;48.824;10.102;2023-02-28T05:27:41;4.03;;;2.58;;
62258;SDS011;48241;48.824;10.102;2023-02-28T05:30:07;6.75;;;4.28;;
62258;SDS011;48241;48.824;10.102;2023-02-28T05:32:35;8.85;;;5.65;;
62258;SDS011;48241;48.824;10.102;2023-02-28T05:35:02;9.25;;;6.35;;
62258;SDS011;48241;48.824;10.102;2023-02-28T05:37:27;9.82;;;6.05;;
62258;SDS011;48241;48.824;10.102;2023-02-28T05:39:53;9.55;;;6.25;;
62258;SDS011;48241;48.824;10.102;2023-02-28T05:42:18;7.50;;;4.78;;
62258;SDS011;48241;48.824;10.102;2023-02-28T05:44:44;9.63;;;4.35;;
62258;SDS011;48241;48.824;10.102;2023-02-28T05:47:10;9.18;;;6.47;;
62258;SDS011;48241;48.824;10.102;2023-02-28T05:49:37;10.50;;;5.57;;
62258;SDS011;48241;48.824;10.102;2023-02-28T05:52:03;9.13;;;5.90;;
62258;SDS011;48241;48.824;10.102;2023-02-28T05:54:28;7.63;;;5.10;;
62258;SDS011;48241;48.824;10.102;2023-02-28T05:56:54;12.63;;;6.90;;
62258;SDS011;48241;48.824;10.102;2023-02-28T05:59:19;9.57;;;6.90;;
62258;SDS011;48241;48.824;10.102;2023-02-28T06:01:45;7.63;;;4.60;;
62258;SDS011;48241;48.824;10.102;2023-02-28T06:04:13;8.82;;;5.63;;
62258;SDS011;48241;48.824;10.102;2023-02-28T06:06:43;10.15;;;7.00;;
62258;SDS011;48241;48.824;10.102;2023-02-28T06:09:08;5.85;;;3.30;;
62258;SDS011;48241;48.824;10.102;2023-02-28T06:11:34;9.93;;;6.53;;
62258;SDS011;48241;48.824;10.102;2023-02-28T06:14:00;11.27;;;6.72;;
62258;SDS011;48241;48.824;10.102;2023-02-28T06:16:27;6.60;;;4.68;;
62258;SDS011;48241;48.824;10.102;2023-02-28T06:18:53;14.02;;;6.30;;
62258;SDS011;48241;48.824;10.102;2023-02-28T06:21:21;10.98;;;6.55;;
62258;SDS011;48241;48.824;10.102;2023-02-28T06:23:47;8.15;;;5.15;;
62258;SDS011;48241;48.824;10.102;2023-02-28T06:26:12;11.45;;;7.00;;
62258;SDS011;48241;48.824;10.102;2023-02-28T06:28:38;11.85;;;6.13;;
62258;SDS011;48241;48.824;10.102;2023-02-28T06:31:11;10.05;;;6.35;;
62258;SDS011;48241;48.824;10.102;2023-02-28T06:33:39;9.80;;;6.30;;
62258;SDS011;48241;48.824;10.102;2023-02-28T06:36:05;9.10;;;5.75;;
62258;SDS011;48241;48.824;10.102;2023-02-28T06:38:32;9.90;;;6.57;;
62258;SDS011;48241;48.824;10.102;2023-02-28T06:40:58;9.15;;;5.10;;
62258;SDS011;48241;48.824;10.102;2023-02-28T06:43:25;10.52;;;5.80;;
62258;SDS011;48241;48.824;10.102;2023-02-28T06:45:57;10.38;;;6.50;;
62258;SDS011;48241;48.824;10.102;2023-02-28T06:48:25;10.77;;;6.95;;
62258;SDS011;48241;48.824;10.102;2023-02-28T06:50:52;10.45;;;6.82;;
62258;SDS011;48241;48.824;10.102;2023-02-28T06:53:25;11.25;;;7.00;;
62258;SDS011;48241;48.824;10.102;2023-02-28T06:55:51;9.13;;;5.60;;
62258;SDS011;48241;48.824;10.102;2023-02-28T06:58:16;9.98;;;5.80;;
62258;SDS011;48241;48.824;10.102;2023-02-28T07:00:45;7.93;;;5.20;;
62258;SDS011;48241;48.824;10.102;2023-02-28T07:03:15;7.68;;;5.47;;
62258;SDS011;48241;48.824;10.102;2023-02-28T07:05:40;10.80;;;6.43;;
62258;SDS011;48241;48.824;10.102;2023-02-28T07:08:06;8.30;;;5.20;;
62258;SDS011;48241;48.824;10.102;2023-02-28T07:10:33;10.25;;;5.20;;
62258;SDS011;48241;48.824;10.102;2023-02-28T07:12:59;10.00;;;6.60;;
62258;SDS011;48241;48.824;10.102;2023-02-28T07:15:25;11.77;;;5.95;;
62258;SDS011;48241;48.824;10.102;2023-02-28T07:17:51;11.57;;;6.85;;
62258;SDS011;48241;48.824;10.102;2023-02-28T07:20:16;11.35;;;6.95;;
62258;SDS011;48241;48.824;10.102;2023-02-28T07:22:42;9.23;;;6.20;;
62258;SDS011;48241;48.824;10.102;2023-02-28T07:25:08;12.77;;;7.60;;
62258;SDS011;48241;48.824;10.102;2023-02-28T07:27:34;12.90;;;6.38;;
62258;SDS011;48241;48.824;10.102;2023-02-28T07:29:59;11.55;;;7.28;;
62258;SDS011;48241;48.824;10.102;2023-02-28T07:32:26;10.10;;;6.72;;
62258;SDS011;48241;48.824;10.102;2023-02-28T07:34:53;12.07;;;7.15;;
62258;SDS011;48241;48.824;10.102;2023-02-28T07:37:18;14.35;;;7.50;;
62258;SDS011;48241;48.824;10.102;2023-02-28T07:39:44;11.52;;;6.97;;
62258;SDS011;48241;48.824;10.102;2023-02-28T07:42:10;10.27;;;6.65;;
62258;SDS011;48241;48.824;10.102;2023-02-28T07:44:37;11.88;;;5.70;;
62258;SDS011;48241;48.824;10.102;2023-02-28T07:47:09;11.10;;;6.53;;
62258;SDS011;48241;48.824;10.102;2023-02-28T07:49:35;11.55;;;6.97;;
62258;SDS011;48241;48.824;10.102;2023-02-28T07:52:02;11.43;;;6.63;;
62258;SDS011;48241;48.824;10.102;2023-02-28T07:54:28;11.88;;;7.30;;
62258;SDS011;48241;48.824;10.102;2023-02-28T07:56:54;12.65;;;7.15;;
62258;SDS011;48241;48.824;10.102;2023-02-28T07:59:20;12.68;;;7.53;;
62258;SDS011;48241;48.824;10.102;2023-02-28T08:01:45;10.38;;;7.15;;
62258;SDS011;48241;48.824;10.102;2023-02-28T08:04:11;8.90;;;5.90;;
62258;SDS011;48241;48.824;10.102;2023-02-28T08:06:36;11.60;;;6.82;;
62258;SDS011;48241;48.824;10.102;2023-02-28T08:09:02;13.43;;;7.63;;
62258;SDS011;48241;48.824;10.102;2023-02-28T08:11:28;13.48;;;7.57;;
62258;SDS011;48241;48.824;10.102;2023-02-28T08:13:54;10.00;;;6.75;;
62258;SDS011;48241;48.824;10.102;2023-02-28T08:16:20;11.70;;;7.60;;
62258;SDS011;48241;48.824;10.102;2023-02-28T08:18:47;12.00;;;7.90;;
62258;SDS011;48241;48.824;10.102;2023-02-28T08:21:16;9.82;;;6.65;;
62258;SDS011;48241;48.824;10.102;2023-02-28T08:23:48;10.13;;;6.00;;
62258;SDS011;48241;48.824;10.102;2023-02-28T08:26:16;13.30;;;7.57;;
62258;SDS011;48241;48.824;10.102;2023-02-28T08:28:44;10.05;;;7.38;;
62258;SDS011;48241;48.824;10.102;2023-02-28T08:31:10;10.82;;;6.65;;
62258;SDS011;48241;48.824;10.102;2023-02-28T08:33:38;11.10;;;6.43;;
62258;SDS011;48241;48.824;10.102;2023-02-28T08:36:05;13.32;;;8.07;;
62258;SDS011;48241;48.824;10.102;2023-02-28T08:38:31;9.68;;;6.20;;
62258;SDS011;48241;48.824;10.102;2023-02-28T08:40:57;14.50;;;7.38;;
62258;SDS011;48241;48.824;10.102;2023-02-28T08:43:24;10.40;;;6.68;;
62258;SDS011;48241;48.824;10.102;2023-02-28T08:45:53;11.13;;;7.18;;
62258;SDS011;48241;48.824;10.102;2023-02-28T08:48:21;10.25;;;6.45;;
62258;SDS011;48241;48.824;10.102;2023-02-28T08:53:27;8.98;;;6.15;;
62258;SDS011;48241;48.824;10.102;2023-02-28T08:55:59;9.07;;;5.43;;
62258;SDS011;48241;48.824;10.102;2023-02-28T08:58:27;8.88;;;6.00;;
62258;SDS011;48241;48.824;10.102;2023-02-28T09:00:53;7.63;;;5.65;;
62258;SDS011;48241;48.824;10.102;2023-02-28T09:03:19;10.25;;;6.35;;
62258;SDS011;48241;48.824;10.102;2023-02-28T09:05:55;9.60;;;6.38;;
62258;SDS011;48241;48.824;10.102;2023-02-28T09:08:23;12.95;;;7.07;;
62258;SDS011;48241;48.824;10.102;2023-02-28T09:10:50;10.48;;;6.78;;
62258;SDS011;48241;48.824;10.102;2023-02-28T09:13:16;10.90;;;4.97;;
62258;SDS011;48241;48.824;10.102;2023-02-28T09:15:42;10.57;;;5.97;;
62258;SDS011;48241;48.824;10.102;2023-02-28T09:18:07;9.82;;;6.50;;
62258;SDS011;48241;48.824;10.102;2023-02-28T09:20:33;9.10;;;5.47;;
62258;SDS011;48241;48.824;10.102;2023-02-28T09:22:58;9.73;;;6.65;;
62258;SDS011;48241;48.824;10.102;2023-02-28T09:25:24;10.77;;;7.13;;
62258;SDS011;48241;48.824;10.102;2023-02-28T09:27:50;12.90;;;7.47;;
62258;SDS011;48241;48.824;10.102;2023-02-28T09:30:18;9.82;;;6.72;;
62258;SDS011;48241;48.824;10.102;2023-02-28T09:32:44;10.98;;;7.03;;
62258;SDS011;48241;48.824;10.102;2023-02-28T09:35:16;12.30;;;7.00;;
62258;SDS011;48241;48.824;10.102;2023-02-28T09:37:43;10.00;;;6.57;;
62258;SDS011;48241;48.824;10.102;2023-02-28T09:40:09;9.40;;;6.03;;
62258;SDS011;48241;48.824;10.102;2023-02-28T09:42:36;9.18;;;6.43;;
62258;SDS011;48241;48.824;10.102;2023-02-28T09:45:02;9.32;;;6.45;;
62258;SDS011;48241;48.824;10.102;2023-02-28T09:47:47;10.45;;;6.97;;
62258;SDS011;48241;48.824;10.102;2023-02-28T09:50:22;8.73;;;6.30;;
62258;SDS011;48241;48.824;10.102;2023-02-28T09:52:51;11.18;;;6.95;;
62258;SDS011;48241;48.824;10.102;2023-02-28T09:55:20;12.40;;;7.55;;
62258;SDS011;48241;48.824;10.102;2023-02-28T09:57:59;8.48;;;5.57;;
62258;SDS011;48241;48.824;10.102;2023-02-28T10:00:30;11.27;;;6.68;;
62258;SDS011;48241;48.824;10.102;2023-02-28T10:06:06;12.07;;;7.28;;
62258;SDS011;48241;48.824;10.102;2023-02-28T10:08:38;11.52;;;7.70;;
62258;SDS011;48241;48.824;10.102;2023-02-28T10:11:11;9.82;;;6.95;;
62258;SDS011;48241;48.824;10.102;2023-02-28T10:13:54;11.40;;;7.35;;
62258;SDS011;48241;48.824;10.102;2023-02-28T10:16:31;11.57;;;7.40;;
62258;SDS011;48241;48.824;10.102;2023-02-28T10:19:30;12.48;;;7.82;;
62258;SDS011;48241;48.824;10.102;2023-02-28T10:22:11;10.15;;;7.45;;
62258;SDS011;48241;48.824;10.102;2023-02-28T10:24:42;11.70;;;7.43;;
62258;SDS011;48241;48.824;10.102;2023-02-28T10:27:20;13.68;;;7.10;;
62258;SDS011;48241;48.824;10.102;2023-02-28T10:29:51;9.13;;;6.72;;
62258;SDS011;48241;48.824;10.102;2023-02-28T10:32:40;10.63;;;6.82;;
62258;SDS011;48241;48.824;10.102;2023-02-28T10:37:34;11.32;;;7.47;;
62258;SDS011;48241;48.824;10.102;2023-02-28T10:40:04;8.25;;;6.13;;
62258;SDS011;48241;48.824;10.102;2023-02-28T10:42:31;7.72;;;5.20;;
62258;SDS011;48241;48.824;10.102;2023-02-28T10:47:48;8.68;;;5.22;;
62258;SDS011;48241;48.824;10.102;2023-02-28T10:50:26;10.48;;;6.65;;
62258;SDS011;48241;48.824;10.102;2023-02-28T10:52:55;8.43;;;5.50;;
62258;SDS011;48241;48.824;10.102;2023-02-28T10:55:33;9.90;;;6.75;;
62258;SDS011;48241;48.824;10.102;2023-02-28T10:57:59;9.57;;;6.90;;
62258;SDS011;48241;48.824;10.102;2023-02-28T11:00:24;8.40;;;4.93;;
62258;SDS011;48241;48.824;10.102;2023-02-28T11:02:56;9.57;;;6.65;;
62258;SDS011;48241;48.824;10.102;2023-02-28T11:05:31;10.90;;;5.97;;
62258;SDS011;48241;48.824;10.102;2023-02-28T11:08:04;8.15;;;6.35;;
62258;SDS011;48241;48.824;10.102;2023-02-28T11:10:37;10.48;;;6.72;;
62258;SDS011;48241;48.824;10.102;2023-02-28T11:13:03;8.77;;;6.47;;
62258;SDS011;48241;48.824;10.102;2023-02-28T11:15:30;10.68;;;7.10;;
62258;SDS011;48241;48.824;10.102;2023-02-28T11:20:48;10.68;;;6.65;;
62258;SDS011;48241;48.824;10.102;2023-02-28T11:23:16;8.57;;;6.35;;
62258;SDS011;48241;48.824;10.102;2023-02-28T11:25:50;7.30;;;5.18;;
62258;SDS011;48241;48.824;10.102;2023-02-28T11:28:26;6.25;;;3.80;;
62258;SDS011;48241;48.824;10.102;2023-02-28T11:33:40;10.25;;;6.40;;
62258;SDS011;48241;48.824;10.102;2023-02-28T11:36:27;9.10;;;5.82;;
62258;SDS011;48241;48.824;10.102;2023-02-28T11:39:16;10.30;;;6.63;;
62258;SDS011;48241;48.824;10.102;2023-02-28T11:41:50;8.63;;;5.45;;
62258;SDS011;48241;48.824;10.102;2023-02-28T11:47:44;8.52;;;5.63;;
62258;SDS011;48241;48.824;10.102;2023-02-28T11:50:21;8.25;;;5.80;;
62258;SDS011;48241;48.824;10.102;2023-02-28T11:53:12;6.93;;;5.00;;
62258;SDS011;48241;48.824;10.102;2023-02-28T11:55:42;8.35;;;6.50;;
62258;SDS011;48241;48.824;10.102;2023-02-28T11:58:20;11.35;;;7.40;;
62258;SDS011;48241;48.824;10.102;2023-02-28T12:06:38;10.02;;;6.53;;
62258;SDS011;48241;48.824;10.102;2023-02-28T12:09:38;9.40;;;6.60;;
62258;SDS011;48241;48.824;10.102;2023-02-28T12:26:44;9.98;;;7.07;;
62258;SDS011;48241;48.824;10.102;2023-02-28T12:29:15;8.07;;;5.38;;
62258;SDS011;48241;48.824;10.102;2023-02-28T12:32:18;9.75;;;5.53;;
62258;SDS011;48241;48.824;10.102;2023-02-28T12:35:02;8.48;;;6.40;;
62258;SDS011;48241;48.824;10.102;2023-02-28T12:40:25;8.60;;;6.25;;
62258;SDS011;48241;48.824;10.102;2023-02-28T12:43:07;9.60;;;6.60;;
62258;SDS011;48241;48.824;10.102;2023-02-28T12:48:29;9.98;;;6.00;;
62258;SDS011;48241;48.824;10.102;2023-02-28T12:51:02;9.15;;;6.18;;
62258;SDS011;48241;48.824;10.102;2023-02-28T12:56:16;9.25;;;6.55;;
62258;SDS011;48241;48.824;10.102;2023-02-28T12:58:56;10.70;;;7.00;;
62258;SDS011;48241;48.824;10.102;2023-02-28T13:01:42;8.95;;;6.30;;
62258;SDS011;48241;48.824;10.102;2023-02-28T13:10:14;9.20;;;6.20;;
62258;SDS011;48241;48.824;10.102;2023-02-28T13:13:02;11.32;;;6.93;;
62258;SDS011;48241;48.824;10.102;2023-02-28T13:15:32;9.45;;;6.32;;
62258;SDS011;48241;48.824;10.102;2023-02-28T13:18:03;10.18;;;6.70;;
62258;SDS011;48241;48.824;10.102;2023-02-28T13:20:35;10.77;;;6.40;;
62258;SDS011;48241;48.824;10.102;2023-02-28T13:23:02;8.23;;;5.57;;
62258;SDS011;48241;48.824;10.102;2023-02-28T13:27:59;9.73;;;6.72;;
62258;SDS011;48241;48.824;10.102;2023-02-28T13:33:29;10.30;;;7.18;;
62258;SDS011;48241;48.824;10.102;2023-02-28T13:38:42;10.18;;;7.10;;
62258;SDS011;48241;48.824;10.102;2023-02-28T13:44:09;11.85;;;7.82;;
62258;SDS011;48241;48.824;10.102;2023-02-28T13:51:51;10.77;;;7.57;;
62258;SDS011;48241;48.824;10.102;2023-02-28T14:05:17;10.02;;;6.93;;
62258;SDS011;48241;48.824;10.102;2023-02-28T14:07:45;10.70;;;7.22;;
62258;SDS011;48241;48.824;10.102;2023-02-28T14:10:22;12.02;;;7.50;;
62258;SDS011;48241;48.824;10.102;2023-02-28T14:20:52;12.40;;;7.05;;
62258;SDS011;48241;48.824;10.102;2023-02-28T14:32:22;11.05;;;7.60;;
62258;SDS011;48241;48.824;10.102;2023-02-28T14:35:09;10.52;;;7.47;;
62258;SDS011;48241;48.824;10.102;2023-02-28T14:37:38;12.07;;;7.20;;
62258;SDS011;48241;48.824;10.102;2023-02-28T14:40:14;10.48;;;7.10;;
62258;SDS011;48241;48.824;10.102;2023-02-28T14:42:46;10.95;;;7.65;;
62258;SDS011;48241;48.824;10.102;2023-02-28T14:45:20;10.57;;;7.38;;
62258;SDS011;48241;48.824;10.102;2023-02-28T14:47:46;10.80;;;7.28;;
62258;SDS011;48241;48.824;10.102;2023-02-28T14:50:18;11.77;;;7.38;;
62258;SDS011;48241;48.824;10.102;2023-02-28T14:52:46;12.88;;;6.82;;
62258;SDS011;48241;48.824;10.102;2023-02-28T14:55:16;10.25;;;7.63;;
62258;SDS011;48241;48.824;10.102;2023-02-28T14:57:51;11.77;;;6.07;;
62258;SDS011;48241;48.824;10.102;2023-02-28T15:00:25;10.10;;;6.82;;
62258;SDS011;48241;48.824;10.102;2023-02-28T15:02:54;9.98;;;7.13;;
62258;SDS011;48241;48.824;10.102;2023-02-28T15:08:04;11.52;;;7.85;;
62258;SDS011;48241;48.824;10.102;2023-02-28T15:10:44;12.05;;;6.93;;
62258;SDS011;48241;48.824;10.102;2023-02-28T15:13:16;10.10;;;6.85;;
62258;SDS011;48241;48.824;10.102;2023-02-28T15:15:59;13.65;;;7.90;;
62258;SDS011;48241;48.824;10.102;2023-02-28T15:18:30;11.98;;;7.90;;
62258;SDS011;48241;48.824;10.102;2023-02-28T15:21:21;12.38;;;8.80;;
62258;SDS011;48241;48.824;10.102;2023-02-28T15:24:14;12.95;;;8.20;;
62258;SDS011;48241;48.824;10.102;2023-02-28T15:26:59;13.18;;;7.85;;
62258;SDS011;48241;48.824;10.102;2023-02-28T15:29:32;13.52;;;7.35;;
62258;SDS011;48241;48.824;10.102;2023-02-28T15:32:19;11.07;;;7.18;;
62258;SDS011;48241;48.824;10.102;2023-02-28T15:37:55;13.60;;;8.10;;
62258;SDS011;48241;48.824;10.102;2023-02-28T15:43:14;12.85;;;8.10;;
62258;SDS011;48241;48.824;10.102;2023-02-28T15:45:51;8.68;;;5.97;;
62258;SDS011;48241;48.824;10.102;2023-02-28T15:51:01;11.00;;;7.95;;
62258;SDS011;48241;48.824;10.102;2023-02-28T15:53:31;13.18;;;8.88;;
62258;SDS011;48241;48.824;10.102;2023-02-28T15:56:05;11.77;;;8.25;;
62258;SDS011;48241;48.824;10.102;2023-02-28T15:58:46;11.00;;;7.97;;
62258;SDS011;48241;48.824;10.102;2023-02-28T16:01:17;10.75;;;7.40;;
62258;SDS011;48241;48.824;10.102;2023-02-28T16:03:49;10.65;;;7.75;;
62258;SDS011;48241;48.824;10.102;2023-02-28T16:08:48;11.35;;;7.95;;
62258;SDS011;48241;48.824;10.102;2023-02-28T16:11:16;12.05;;;7.90;;
62258;SDS011;48241;48.824;10.102;2023-02-28T16:13:43;12.93;;;8.32;;
62258;SDS011;48241;48.824;10.102;2023-02-28T16:16:14;11.63;;;8.40;;
62258;SDS011;48241;48.824;10.102;2023-02-28T16:18:44;11.27;;;6.32;;
62258;SDS011;48241;48.824;10.102;2023-02-28T16:21:10;13.15;;;8.82;;
62258;SDS011;48241;48.824;10.102;2023-02-28T16:23:36;12.48;;;8.50;;
62258;SDS011;48241;48.824;10.102;2023-02-28T16:26:03;17.30;;;9.70;;
62258;SDS011;48241;48.824;10.102;2023-02-28T16:28:34;11.60;;;8.07;;
62258;SDS011;48241;48.824;10.102;2023-02-28T16:31:02;13.95;;;8.50;;
62258;SDS011;48241;48.824;10.102;2023-02-28T16:33:31;11.15;;;8.40;;
62258;SDS011;48241;48.824;10.102;2023-02-28T16:35:57;13.05;;;8.43;;
62258;SDS011;48241;48.824;10.102;2023-02-28T16:38:23;13.07;;;8.25;;
62258;SDS011;48241;48.824;10.102;2023-02-28T16:40:50;12.23;;;8.48;;
62258;SDS011;48241;48.824;10.102;2023-02-28T16:43:17;12.52;;;8.98;;
62258;SDS011;48241;48.824;10.102;2023-02-28T16:45:46;12.35;;;8.18;;
62258;SDS011;48241;48.824;10.102;2023-02-28T16:48:13;13.02;;;8.98;;
62258;SDS011;48241;48.824;10.102;2023-02-28T16:50:40;13.52;;;8.90;;
62258;SDS011;48241;48.824;10.102;2023-02-28T16:53:09;14.57;;;8.95;;
62258;SDS011;48241;48.824;10.102;2023-02-28T16:55:35;14.65;;;9.45;;
62258;SDS011;48241;48.824;10.102;2023-02-28T16:58:10;12.60;;;8.35;;
62258;SDS011;48241;48.824;10.102;2023-02-28T17:00:40;14.73;;;8.98;;
62258;SDS011;48241;48.824;10.102;2023-02-28T17:03:10;7.35;;;5.53;;
62258;SDS011;48241;48.824;10.102;2023-02-28T17:05:52;11.23;;;7.80;;
62258;SDS011;48241;48.824;10.102;2023-02-28T17:08:18;12.77;;;8.50;;
62258;SDS011;48241;48.824;10.102;2023-02-28T17:10:44;13.15;;;9.13;;